sensor_id;sensor_type;location;lat;lon;timestamp;P1;durP1;ratioP1;P2;durP2;ratioP2
50495;SDS011;38806;51.554;5.704;2023-12-20T00:01:40;29.27;;;12.55;;
50495;SDS011;38806;51.554;5.704;2023-12-20T00:03:40;34.20;;;15.57;;
50495;SDS011;38806;51.554;5.704;2023-12-20T00:05:40;24.55;;;13.52;;
50495;SDS011;38806;51.554;5.704;2023-12-20T00:07:41;29.58;;;13.13;;
50495;SDS011;38806;51.554;5.704;2023-12-20T00:09:41;25.80;;;10.65;;
50495;SDS011;38806;51.554;5.704;2023-12-20T00:11:41;27.50;;;13.65;;
50495;SDS011;38806;51.554;5.704;2023-12-20T00:13:42;23.70;;;13.25;;
50495;SDS011;38806;51.554;5.704;2023-12-20T00:15:42;27.15;;;12.32;;
50495;SDS011;38806;51.554;5.704;2023-12-20T00:17:42;31.42;;;12.75;;
50495;SDS011;38806;51.554;5.704;2023-12-20T00:19:42;21.13;;;11.85;;
50495;SDS011;38806;51.554;5.704;2023-12-20T00:21:42;28.50;;;10.55;;
50495;SDS011;38806;51.554;5.704;2023-12-20T00:23:43;23.58;;;11.07;;
50495;SDS011;38806;51.554;5.704;2023-12-20T00:25:43;25.90;;;12.55;;
50495;SDS011;38806;51.554;5.704;2023-12-20T00:27:43;20.05;;;11.45;;
50495;SDS011;38806;51.554;5.704;2023-12-20T00:29:43;22.30;;;8.18;;
50495;SDS011;38806;51.554;5.704;2023-12-20T00:31:47;16.45;;;8.80;;
50495;SDS011;38806;51.554;5.704;2023-12-20T00:33:48;18.70;;;6.85;;
50495;SDS011;38806;51.554;5.704;2023-12-20T00:35:48;21.85;;;7.57;;
50495;SDS011;38806;51.554;5.704;2023-12-20T00:37:48;15.88;;;6.65;;
50495;SDS011;38806;51.554;5.704;2023-12-20T00:39:48;17.55;;;6.97;;
50495;SDS011;38806;51.554;5.704;2023-12-20T00:41:48;23.75;;;6.35;;
50495;SDS011;38806;51.554;5.704;2023-12-20T00:43:48;18.38;;;6.13;;
50495;SDS011;38806;51.554;5.704;2023-12-20T00:45:49;18.00;;;5.30;;
50495;SDS011;38806;51.554;5.704;2023-12-20T00:47:49;20.23;;;5.72;;
50495;SDS011;38806;51.554;5.704;2023-12-20T00:49:49;15.63;;;5.78;;
50495;SDS011;38806;51.554;5.704;2023-12-20T00:51:49;10.95;;;4.35;;
50495;SDS011;38806;51.554;5.704;2023-12-20T00:53:50;13.55;;;5.10;;
50495;SDS011;38806;51.554;5.704;2023-12-20T00:55:54;19.02;;;6.80;;
50495;SDS011;38806;51.554;5.704;2023-12-20T00:57:54;15.25;;;4.78;;
50495;SDS011;38806;51.554;5.704;2023-12-20T00:59:55;13.50;;;4.45;;
50495;SDS011;38806;51.554;5.704;2023-12-20T01:01:55;11.18;;;4.80;;
50495;SDS011;38806;51.554;5.704;2023-12-20T01:03:55;12.35;;;5.90;;
50495;SDS011;38806;51.554;5.704;2023-12-20T01:05:55;14.73;;;5.20;;
50495;SDS011;38806;51.554;5.704;2023-12-20T01:07:55;18.63;;;5.97;;
50495;SDS011;38806;51.554;5.704;2023-12-20T01:09:55;17.40;;;5.65;;
50495;SDS011;38806;51.554;5.704;2023-12-20T01:11:56;10.93;;;4.68;;
50495;SDS011;38806;51.554;5.704;2023-12-20T01:13:56;11.30;;;5.28;;
50495;SDS011;38806;51.554;5.704;2023-12-20T01:15:56;16.83;;;4.78;;
50495;SDS011;38806;51.554;5.704;2023-12-20T01:17:56;14.50;;;4.72;;
50495;SDS011;38806;51.554;5.704;2023-12-20T01:19:58;15.50;;;4.97;;
50495;SDS011;38806;51.554;5.704;2023-12-20T01:21:58;16.05;;;5.80;;
50495;SDS011;38806;51.554;5.704;2023-12-20T01:23:58;15.07;;;7.05;;
50495;SDS011;38806;51.554;5.704;2023-12-20T01:25:59;11.38;;;4.22;;
50495;SDS011;38806;51.554;5.704;2023-12-20T01:28:02;14.88;;;5.32;;
50495;SDS011;38806;51.554;5.704;2023-12-20T01:30:03;12.65;;;5.18;;
50495;SDS011;38806;51.554;5.704;2023-12-20T01:32:03;22.70;;;5.57;;
50495;SDS011;38806;51.554;5.704;2023-12-20T01:34:03;10.23;;;3.85;;
50495;SDS011;38806;51.554;5.704;2023-12-20T01:36:04;23.38;;;5.07;;
50495;SDS011;38806;51.554;5.704;2023-12-20T01:38:04;18.88;;;4.40;;
50495;SDS011;38806;51.554;5.704;2023-12-20T01:40:04;12.25;;;3.97;;
50495;SDS011;38806;51.554;5.704;2023-12-20T01:42:05;18.98;;;5.05;;
50495;SDS011;38806;51.554;5.704;2023-12-20T01:44:05;18.27;;;4.70;;
50495;SDS011;38806;51.554;5.704;2023-12-20T01:46:05;19.63;;;4.95;;
50495;SDS011;38806;51.554;5.704;2023-12-20T01:48:05;9.30;;;3.70;;
50495;SDS011;38806;51.554;5.704;2023-12-20T01:50:06;16.92;;;4.03;;
50495;SDS011;38806;51.554;5.704;2023-12-20T01:52:08;12.07;;;5.82;;
50495;SDS011;38806;51.554;5.704;2023-12-20T01:54:08;9.32;;;3.22;;
50495;SDS011;38806;51.554;5.704;2023-12-20T01:56:08;13.45;;;6.65;;
50495;SDS011;38806;51.554;5.704;2023-12-20T01:58:09;9.43;;;4.05;;
50495;SDS011;38806;51.554;5.704;2023-12-20T02:00:11;12.05;;;3.85;;
50495;SDS011;38806;51.554;5.704;2023-12-20T02:02:11;10.82;;;3.97;;
50495;SDS011;38806;51.554;5.704;2023-12-20T02:04:12;12.70;;;3.17;;
50495;SDS011;38806;51.554;5.704;2023-12-20T02:06:13;15.27;;;4.25;;
50495;SDS011;38806;51.554;5.704;2023-12-20T02:08:13;13.00;;;4.32;;
50495;SDS011;38806;51.554;5.704;2023-12-20T02:10:13;22.17;;;4.18;;
50495;SDS011;38806;51.554;5.704;2023-12-20T02:12:13;14.85;;;4.70;;
50495;SDS011;38806;51.554;5.704;2023-12-20T02:14:14;13.38;;;4.07;;
50495;SDS011;38806;51.554;5.704;2023-12-20T02:16:14;16.50;;;3.65;;
50495;SDS011;38806;51.554;5.704;2023-12-20T02:18:14;14.80;;;3.97;;
50495;SDS011;38806;51.554;5.704;2023-12-20T02:20:16;12.65;;;4.03;;
50495;SDS011;38806;51.554;5.704;2023-12-20T02:22:16;14.07;;;4.60;;
50495;SDS011;38806;51.554;5.704;2023-12-20T02:24:17;11.38;;;4.82;;
50495;SDS011;38806;51.554;5.704;2023-12-20T02:26:17;13.43;;;3.60;;
50495;SDS011;38806;51.554;5.704;2023-12-20T02:28:18;14.20;;;4.78;;
50495;SDS011;38806;51.554;5.704;2023-12-20T02:30:18;13.90;;;4.90;;
50495;SDS011;38806;51.554;5.704;2023-12-20T02:32:19;17.80;;;4.50;;
50495;SDS011;38806;51.554;5.704;2023-12-20T02:34:19;14.75;;;4.65;;
50495;SDS011;38806;51.554;5.704;2023-12-20T02:36:19;18.60;;;5.68;;
50495;SDS011;38806;51.554;5.704;2023-12-20T02:38:19;18.30;;;5.75;;
50495;SDS011;38806;51.554;5.704;2023-12-20T02:40:19;11.43;;;4.28;;
50495;SDS011;38806;51.554;5.704;2023-12-20T02:42:19;14.68;;;4.93;;
50495;SDS011;38806;51.554;5.704;2023-12-20T02:44:20;19.75;;;5.85;;
50495;SDS011;38806;51.554;5.704;2023-12-20T02:46:20;20.52;;;4.85;;
50495;SDS011;38806;51.554;5.704;2023-12-20T02:48:20;19.00;;;5.82;;
50495;SDS011;38806;51.554;5.704;2023-12-20T02:50:20;14.02;;;5.47;;
50495;SDS011;38806;51.554;5.704;2023-12-20T02:52:21;24.42;;;4.00;;
50495;SDS011;38806;51.554;5.704;2023-12-20T02:54:21;16.25;;;5.82;;
50495;SDS011;38806;51.554;5.704;2023-12-20T02:56:21;21.70;;;5.22;;
50495;SDS011;38806;51.554;5.704;2023-12-20T02:58:21;14.55;;;4.13;;
50495;SDS011;38806;51.554;5.704;2023-12-20T03:00:21;16.48;;;5.25;;
50495;SDS011;38806;51.554;5.704;2023-12-20T03:02:22;15.82;;;4.28;;
50495;SDS011;38806;51.554;5.704;2023-12-20T03:04:22;12.27;;;4.50;;
50495;SDS011;38806;51.554;5.704;2023-12-20T03:06:22;20.30;;;6.43;;
50495;SDS011;38806;51.554;5.704;2023-12-20T03:08:22;16.30;;;5.38;;
50495;SDS011;38806;51.554;5.704;2023-12-20T03:10:22;14.65;;;4.38;;
50495;SDS011;38806;51.554;5.704;2023-12-20T03:12:23;20.27;;;6.18;;
50495;SDS011;38806;51.554;5.704;2023-12-20T03:14:23;15.45;;;6.35;;
50495;SDS011;38806;51.554;5.704;2023-12-20T03:16:24;14.13;;;5.35;;
50495;SDS011;38806;51.554;5.704;2023-12-20T03:18:24;11.00;;;4.47;;
50495;SDS011;38806;51.554;5.704;2023-12-20T03:20:24;24.10;;;6.65;;
50495;SDS011;38806;51.554;5.704;2023-12-20T03:22:26;15.50;;;5.68;;
50495;SDS011;38806;51.554;5.704;2023-12-20T03:24:26;10.40;;;4.53;;
50495;SDS011;38806;51.554;5.704;2023-12-20T03:26:26;18.63;;;6.60;;
50495;SDS011;38806;51.554;5.704;2023-12-20T03:28:27;20.20;;;7.03;;
50495;SDS011;38806;51.554;5.704;2023-12-20T03:30:27;13.55;;;6.82;;
50495;SDS011;38806;51.554;5.704;2023-12-20T03:32:27;21.95;;;6.18;;
50495;SDS011;38806;51.554;5.704;2023-12-20T03:34:28;25.27;;;5.90;;
50495;SDS011;38806;51.554;5.704;2023-12-20T03:36:29;14.73;;;4.53;;
50495;SDS011;38806;51.554;5.704;2023-12-20T03:38:29;12.85;;;5.60;;
50495;SDS011;38806;51.554;5.704;2023-12-20T03:40:29;14.73;;;5.88;;
50495;SDS011;38806;51.554;5.704;2023-12-20T03:42:29;25.63;;;5.88;;
50495;SDS011;38806;51.554;5.704;2023-12-20T03:44:30;17.25;;;5.88;;
50495;SDS011;38806;51.554;5.704;2023-12-20T03:46:30;13.57;;;4.55;;
50495;SDS011;38806;51.554;5.704;2023-12-20T03:48:30;13.70;;;6.22;;
50495;SDS011;38806;51.554;5.704;2023-12-20T03:50:30;14.68;;;4.93;;
50495;SDS011;38806;51.554;5.704;2023-12-20T03:52:31;18.88;;;7.03;;
50495;SDS011;38806;51.554;5.704;2023-12-20T03:54:31;16.92;;;6.20;;
50495;SDS011;38806;51.554;5.704;2023-12-20T03:56:31;16.35;;;4.63;;
50495;SDS011;38806;51.554;5.704;2023-12-20T03:58:31;17.70;;;4.78;;
50495;SDS011;38806;51.554;5.704;2023-12-20T04:00:31;13.65;;;5.55;;
50495;SDS011;38806;51.554;5.704;2023-12-20T04:02:32;21.75;;;5.88;;
50495;SDS011;38806;51.554;5.704;2023-12-20T04:04:32;30.85;;;5.43;;
50495;SDS011;38806;51.554;5.704;2023-12-20T04:06:32;20.95;;;4.80;;
50495;SDS011;38806;51.554;5.704;2023-12-20T04:08:32;25.65;;;5.85;;
50495;SDS011;38806;51.554;5.704;2023-12-20T04:10:32;14.93;;;6.43;;
50495;SDS011;38806;51.554;5.704;2023-12-20T04:12:32;26.88;;;6.63;;
50495;SDS011;38806;51.554;5.704;2023-12-20T04:14:33;17.55;;;6.07;;
50495;SDS011;38806;51.554;5.704;2023-12-20T04:16:34;14.68;;;4.78;;
50495;SDS011;38806;51.554;5.704;2023-12-20T04:18:34;17.83;;;7.30;;
50495;SDS011;38806;51.554;5.704;2023-12-20T04:20:35;25.25;;;6.35;;
50495;SDS011;38806;51.554;5.704;2023-12-20T04:22:35;17.80;;;6.15;;
50495;SDS011;38806;51.554;5.704;2023-12-20T04:24:35;18.17;;;6.88;;
50495;SDS011;38806;51.554;5.704;2023-12-20T04:26:35;9.77;;;5.13;;
50495;SDS011;38806;51.554;5.704;2023-12-20T04:28:36;20.58;;;7.70;;
50495;SDS011;38806;51.554;5.704;2023-12-20T04:30:36;15.82;;;5.32;;
50495;SDS011;38806;51.554;5.704;2023-12-20T04:32:36;16.50;;;7.65;;
50495;SDS011;38806;51.554;5.704;2023-12-20T04:34:36;19.83;;;8.30;;
50495;SDS011;38806;51.554;5.704;2023-12-20T04:36:36;10.98;;;6.38;;
50495;SDS011;38806;51.554;5.704;2023-12-20T04:38:36;21.27;;;8.20;;
50495;SDS011;38806;51.554;5.704;2023-12-20T04:40:37;13.75;;;5.70;;
50495;SDS011;38806;51.554;5.704;2023-12-20T04:42:37;19.58;;;7.63;;
50495;SDS011;38806;51.554;5.704;2023-12-20T04:44:37;20.50;;;8.65;;
50495;SDS011;38806;51.554;5.704;2023-12-20T04:46:37;13.10;;;7.28;;
50495;SDS011;38806;51.554;5.704;2023-12-20T04:48:38;15.25;;;6.07;;
50495;SDS011;38806;51.554;5.704;2023-12-20T04:50:38;15.60;;;6.68;;
50495;SDS011;38806;51.554;5.704;2023-12-20T04:52:38;15.98;;;8.05;;
50495;SDS011;38806;51.554;5.704;2023-12-20T04:54:38;14.35;;;7.38;;
50495;SDS011;38806;51.554;5.704;2023-12-20T04:56:39;19.48;;;6.25;;
50495;SDS011;38806;51.554;5.704;2023-12-20T04:58:39;32.10;;;7.90;;
50495;SDS011;38806;51.554;5.704;2023-12-20T05:00:39;32.88;;;6.97;;
50495;SDS011;38806;51.554;5.704;2023-12-20T05:02:40;17.80;;;5.97;;
50495;SDS011;38806;51.554;5.704;2023-12-20T05:04:40;16.80;;;6.05;;
50495;SDS011;38806;51.554;5.704;2023-12-20T05:06:41;22.23;;;6.97;;
50495;SDS011;38806;51.554;5.704;2023-12-20T05:08:41;19.48;;;6.65;;
50495;SDS011;38806;51.554;5.704;2023-12-20T05:10:41;15.57;;;6.35;;
50495;SDS011;38806;51.554;5.704;2023-12-20T05:12:42;23.40;;;8.23;;
50495;SDS011;38806;51.554;5.704;2023-12-20T05:14:42;17.80;;;7.00;;
50495;SDS011;38806;51.554;5.704;2023-12-20T05:16:42;15.73;;;6.28;;
50495;SDS011;38806;51.554;5.704;2023-12-20T05:18:45;27.83;;;8.48;;
50495;SDS011;38806;51.554;5.704;2023-12-20T05:20:45;24.77;;;8.88;;
50495;SDS011;38806;51.554;5.704;2023-12-20T05:22:46;18.17;;;6.18;;
50495;SDS011;38806;51.554;5.704;2023-12-20T05:24:47;15.95;;;7.43;;
50495;SDS011;38806;51.554;5.704;2023-12-20T05:26:47;20.38;;;6.57;;
50495;SDS011;38806;51.554;5.704;2023-12-20T05:28:47;22.63;;;8.52;;
50495;SDS011;38806;51.554;5.704;2023-12-20T05:30:47;16.42;;;6.85;;
50495;SDS011;38806;51.554;5.704;2023-12-20T05:32:48;29.35;;;8.55;;
50495;SDS011;38806;51.554;5.704;2023-12-20T05:34:48;13.18;;;5.65;;
50495;SDS011;38806;51.554;5.704;2023-12-20T05:36:48;18.30;;;8.88;;
50495;SDS011;38806;51.554;5.704;2023-12-20T05:38:48;17.52;;;6.65;;
50495;SDS011;38806;51.554;5.704;2023-12-20T05:40:48;22.02;;;6.70;;
50495;SDS011;38806;51.554;5.704;2023-12-20T05:42:49;19.42;;;6.97;;
50495;SDS011;38806;51.554;5.704;2023-12-20T05:44:49;23.33;;;5.28;;
50495;SDS011;38806;51.554;5.704;2023-12-20T05:46:49;40.15;;;6.55;;
50495;SDS011;38806;51.554;5.704;2023-12-20T05:48:49;20.40;;;7.68;;
50495;SDS011;38806;51.554;5.704;2023-12-20T05:50:49;22.85;;;5.60;;
50495;SDS011;38806;51.554;5.704;2023-12-20T05:52:50;18.30;;;5.95;;
50495;SDS011;38806;51.554;5.704;2023-12-20T05:54:50;18.55;;;6.97;;
50495;SDS011;38806;51.554;5.704;2023-12-20T05:56:50;16.73;;;6.40;;
50495;SDS011;38806;51.554;5.704;2023-12-20T05:58:50;21.67;;;7.47;;
50495;SDS011;38806;51.554;5.704;2023-12-20T06:00:51;14.93;;;6.10;;
50495;SDS011;38806;51.554;5.704;2023-12-20T06:02:51;24.42;;;7.18;;
50495;SDS011;38806;51.554;5.704;2023-12-20T06:04:51;15.95;;;6.15;;
50495;SDS011;38806;51.554;5.704;2023-12-20T06:06:51;13.63;;;5.63;;
50495;SDS011;38806;51.554;5.704;2023-12-20T06:08:51;16.40;;;7.43;;
50495;SDS011;38806;51.554;5.704;2023-12-20T06:10:52;21.35;;;6.25;;
50495;SDS011;38806;51.554;5.704;2023-12-20T06:12:52;20.25;;;7.47;;
50495;SDS011;38806;51.554;5.704;2023-12-20T06:14:52;22.02;;;6.68;;
50495;SDS011;38806;51.554;5.704;2023-12-20T06:16:52;21.50;;;6.80;;
50495;SDS011;38806;51.554;5.704;2023-12-20T06:18:52;17.52;;;6.45;;
50495;SDS011;38806;51.554;5.704;2023-12-20T06:20:53;17.00;;;5.55;;
50495;SDS011;38806;51.554;5.704;2023-12-20T06:22:53;14.50;;;6.88;;
50495;SDS011;38806;51.554;5.704;2023-12-20T06:24:53;19.83;;;6.28;;
50495;SDS011;38806;51.554;5.704;2023-12-20T06:26:54;23.00;;;6.88;;
50495;SDS011;38806;51.554;5.704;2023-12-20T06:28:55;21.40;;;6.72;;
50495;SDS011;38806;51.554;5.704;2023-12-20T06:30:55;18.10;;;5.50;;
50495;SDS011;38806;51.554;5.704;2023-12-20T06:32:56;18.48;;;10.23;;
50495;SDS011;38806;51.554;5.704;2023-12-20T06:34:57;16.05;;;6.38;;
50495;SDS011;38806;51.554;5.704;2023-12-20T06:36:57;26.30;;;5.47;;
50495;SDS011;38806;51.554;5.704;2023-12-20T06:38:58;17.10;;;5.78;;
50495;SDS011;38806;51.554;5.704;2023-12-20T06:40:58;16.48;;;6.55;;
50495;SDS011;38806;51.554;5.704;2023-12-20T06:42:59;22.77;;;7.22;;
50495;SDS011;38806;51.554;5.704;2023-12-20T06:44:59;16.80;;;6.75;;
50495;SDS011;38806;51.554;5.704;2023-12-20T06:47:00;17.88;;;6.93;;
50495;SDS011;38806;51.554;5.704;2023-12-20T06:49:00;22.20;;;6.90;;
50495;SDS011;38806;51.554;5.704;2023-12-20T06:51:00;17.02;;;7.55;;
50495;SDS011;38806;51.554;5.704;2023-12-20T06:53:02;19.85;;;7.65;;
50495;SDS011;38806;51.554;5.704;2023-12-20T06:55:06;23.55;;;6.10;;
50495;SDS011;38806;51.554;5.704;2023-12-20T06:57:07;15.38;;;6.32;;
50495;SDS011;38806;51.554;5.704;2023-12-20T06:59:07;12.45;;;5.93;;
50495;SDS011;38806;51.554;5.704;2023-12-20T07:01:11;19.55;;;7.20;;
50495;SDS011;38806;51.554;5.704;2023-12-20T07:03:11;20.77;;;7.78;;
50495;SDS011;38806;51.554;5.704;2023-12-20T07:05:11;14.57;;;6.38;;
50495;SDS011;38806;51.554;5.704;2023-12-20T07:07:11;16.73;;;7.07;;
50495;SDS011;38806;51.554;5.704;2023-12-20T07:09:12;12.88;;;6.20;;
50495;SDS011;38806;51.554;5.704;2023-12-20T07:11:13;18.35;;;6.10;;
50495;SDS011;38806;51.554;5.704;2023-12-20T07:13:13;18.52;;;5.78;;
50495;SDS011;38806;51.554;5.704;2023-12-20T07:15:14;14.88;;;6.45;;
50495;SDS011;38806;51.554;5.704;2023-12-20T07:17:14;21.73;;;7.75;;
50495;SDS011;38806;51.554;5.704;2023-12-20T07:19:15;15.13;;;6.55;;
50495;SDS011;38806;51.554;5.704;2023-12-20T07:21:15;17.27;;;7.85;;
50495;SDS011;38806;51.554;5.704;2023-12-20T07:23:15;24.50;;;8.38;;
50495;SDS011;38806;51.554;5.704;2023-12-20T07:25:15;17.52;;;6.70;;
50495;SDS011;38806;51.554;5.704;2023-12-20T07:27:16;14.38;;;5.93;;
50495;SDS011;38806;51.554;5.704;2023-12-20T07:29:16;13.70;;;7.95;;
50495;SDS011;38806;51.554;5.704;2023-12-20T07:31:16;21.08;;;6.03;;
50495;SDS011;38806;51.554;5.704;2023-12-20T07:33:17;19.35;;;6.18;;
50495;SDS011;38806;51.554;5.704;2023-12-20T07:35:17;19.60;;;5.68;;
50495;SDS011;38806;51.554;5.704;2023-12-20T07:37:17;12.13;;;5.07;;
50495;SDS011;38806;51.554;5.704;2023-12-20T07:39:17;16.02;;;5.72;;
50495;SDS011;38806;51.554;5.704;2023-12-20T07:41:18;12.98;;;4.57;;
50495;SDS011;38806;51.554;5.704;2023-12-20T07:43:21;17.38;;;5.53;;
50495;SDS011;38806;51.554;5.704;2023-12-20T07:45:21;20.08;;;4.53;;
50495;SDS011;38806;51.554;5.704;2023-12-20T07:47:21;17.77;;;6.20;;
50495;SDS011;38806;51.554;5.704;2023-12-20T07:49:22;10.57;;;4.28;;
50495;SDS011;38806;51.554;5.704;2023-12-20T07:51:22;20.33;;;6.90;;
50495;SDS011;38806;51.554;5.704;2023-12-20T07:53:22;13.15;;;4.78;;
50495;SDS011;38806;51.554;5.704;2023-12-20T07:55:22;17.42;;;5.20;;
50495;SDS011;38806;51.554;5.704;2023-12-20T07:57:23;17.52;;;6.05;;
50495;SDS011;38806;51.554;5.704;2023-12-20T07:59:23;15.63;;;5.88;;
50495;SDS011;38806;51.554;5.704;2023-12-20T08:01:23;10.20;;;3.67;;
50495;SDS011;38806;51.554;5.704;2023-12-20T08:03:23;18.83;;;6.60;;
50495;SDS011;38806;51.554;5.704;2023-12-20T08:05:24;14.68;;;5.93;;
50495;SDS011;38806;51.554;5.704;2023-12-20T08:07:24;21.98;;;6.35;;
50495;SDS011;38806;51.554;5.704;2023-12-20T08:09:24;17.25;;;5.88;;
50495;SDS011;38806;51.554;5.704;2023-12-20T08:11:24;14.80;;;5.40;;
50495;SDS011;38806;51.554;5.704;2023-12-20T08:13:24;13.90;;;4.90;;
50495;SDS011;38806;51.554;5.704;2023-12-20T08:15:26;16.08;;;4.93;;
50495;SDS011;38806;51.554;5.704;2023-12-20T08:17:26;11.98;;;4.63;;
50495;SDS011;38806;51.554;5.704;2023-12-20T08:19:26;21.15;;;4.80;;
50495;SDS011;38806;51.554;5.704;2023-12-20T08:21:26;24.92;;;7.45;;
50495;SDS011;38806;51.554;5.704;2023-12-20T08:23:27;24.67;;;5.45;;
50495;SDS011;38806;51.554;5.704;2023-12-20T08:25:27;14.57;;;4.45;;
50495;SDS011;38806;51.554;5.704;2023-12-20T08:27:28;15.70;;;5.38;;
50495;SDS011;38806;51.554;5.704;2023-12-20T08:29:28;18.30;;;6.72;;
50495;SDS011;38806;51.554;5.704;2023-12-20T08:31:28;16.17;;;4.07;;
50495;SDS011;38806;51.554;5.704;2023-12-20T08:33:28;9.18;;;4.60;;
50495;SDS011;38806;51.554;5.704;2023-12-20T08:35:29;11.60;;;4.15;;
50495;SDS011;38806;51.554;5.704;2023-12-20T08:37:29;22.48;;;5.78;;
50495;SDS011;38806;51.554;5.704;2023-12-20T08:39:30;16.83;;;5.80;;
50495;SDS011;38806;51.554;5.704;2023-12-20T08:41:30;22.20;;;5.75;;
50495;SDS011;38806;51.554;5.704;2023-12-20T08:43:36;13.32;;;6.15;;
50495;SDS011;38806;51.554;5.704;2023-12-20T08:45:36;13.25;;;4.60;;
50495;SDS011;38806;51.554;5.704;2023-12-20T08:47:36;20.75;;;6.30;;
50495;SDS011;38806;51.554;5.704;2023-12-20T08:49:37;14.88;;;5.70;;
50495;SDS011;38806;51.554;5.704;2023-12-20T08:51:37;10.57;;;5.50;;
50495;SDS011;38806;51.554;5.704;2023-12-20T08:53:40;18.13;;;4.38;;
50495;SDS011;38806;51.554;5.704;2023-12-20T08:55:40;17.23;;;6.45;;
50495;SDS011;38806;51.554;5.704;2023-12-20T08:57:40;14.35;;;5.32;;
50495;SDS011;38806;51.554;5.704;2023-12-20T08:59:40;16.05;;;5.57;;
50495;SDS011;38806;51.554;5.704;2023-12-20T09:01:41;18.80;;;5.57;;
50495;SDS011;38806;51.554;5.704;2023-12-20T09:03:41;12.32;;;4.45;;
50495;SDS011;38806;51.554;5.704;2023-12-20T09:05:41;13.15;;;4.30;;
50495;SDS011;38806;51.554;5.704;2023-12-20T09:07:41;17.25;;;4.88;;
50495;SDS011;38806;51.554;5.704;2023-12-20T09:09:41;16.25;;;5.15;;
50495;SDS011;38806;51.554;5.704;2023-12-20T09:11:42;17.27;;;5.15;;
50495;SDS011;38806;51.554;5.704;2023-12-20T09:13:42;16.00;;;5.18;;
50495;SDS011;38806;51.554;5.704;2023-12-20T09:15:42;16.20;;;5.70;;
50495;SDS011;38806;51.554;5.704;2023-12-20T09:17:42;17.15;;;5.00;;
50495;SDS011;38806;51.554;5.704;2023-12-20T09:19:43;17.90;;;6.20;;
50495;SDS011;38806;51.554;5.704;2023-12-20T09:21:44;18.40;;;5.10;;
50495;SDS011;38806;51.554;5.704;2023-12-20T09:23:44;19.92;;;5.35;;
50495;SDS011;38806;51.554;5.704;2023-12-20T09:25:45;11.98;;;5.00;;
50495;SDS011;38806;51.554;5.704;2023-12-20T09:27:45;23.33;;;10.02;;
50495;SDS011;38806;51.554;5.704;2023-12-20T09:29:45;15.85;;;4.65;;
50495;SDS011;38806;51.554;5.704;2023-12-20T09:31:45;17.52;;;4.88;;
50495;SDS011;38806;51.554;5.704;2023-12-20T09:33:46;12.07;;;6.32;;
50495;SDS011;38806;51.554;5.704;2023-12-20T09:35:46;14.18;;;5.15;;
50495;SDS011;38806;51.554;5.704;2023-12-20T09:37:47;14.55;;;5.25;;
50495;SDS011;38806;51.554;5.704;2023-12-20T09:39:47;21.83;;;7.07;;
50495;SDS011;38806;51.554;5.704;2023-12-20T09:41:49;10.98;;;4.65;;
50495;SDS011;38806;51.554;5.704;2023-12-20T09:43:51;14.60;;;4.55;;
50495;SDS011;38806;51.554;5.704;2023-12-20T09:45:53;17.75;;;6.07;;
50495;SDS011;38806;51.554;5.704;2023-12-20T09:47:53;10.50;;;4.57;;
50495;SDS011;38806;51.554;5.704;2023-12-20T09:49:54;15.40;;;5.80;;
50495;SDS011;38806;51.554;5.704;2023-12-20T09:51:55;20.13;;;7.47;;
50495;SDS011;38806;51.554;5.704;2023-12-20T09:53:56;17.95;;;6.50;;
50495;SDS011;38806;51.554;5.704;2023-12-20T09:55:58;18.55;;;5.25;;
50495;SDS011;38806;51.554;5.704;2023-12-20T09:57:59;15.73;;;5.60;;
50495;SDS011;38806;51.554;5.704;2023-12-20T09:59:59;13.85;;;4.63;;
50495;SDS011;38806;51.554;5.704;2023-12-20T10:02:00;18.65;;;5.32;;
50495;SDS011;38806;51.554;5.704;2023-12-20T10:04:01;17.73;;;4.70;;
50495;SDS011;38806;51.554;5.704;2023-12-20T10:06:03;13.65;;;4.93;;
50495;SDS011;38806;51.554;5.704;2023-12-20T10:08:04;19.48;;;6.30;;
50495;SDS011;38806;51.554;5.704;2023-12-20T10:10:04;13.43;;;5.03;;
50495;SDS011;38806;51.554;5.704;2023-12-20T10:12:05;15.07;;;5.63;;
50495;SDS011;38806;51.554;5.704;2023-12-20T10:14:05;15.35;;;4.50;;
50495;SDS011;38806;51.554;5.704;2023-12-20T10:16:06;16.30;;;5.97;;
50495;SDS011;38806;51.554;5.704;2023-12-20T10:18:07;15.77;;;6.47;;
50495;SDS011;38806;51.554;5.704;2023-12-20T10:20:08;22.48;;;6.30;;
50495;SDS011;38806;51.554;5.704;2023-12-20T10:22:09;14.52;;;4.65;;
50495;SDS011;38806;51.554;5.704;2023-12-20T10:24:10;12.73;;;5.88;;
50495;SDS011;38806;51.554;5.704;2023-12-20T10:26:19;12.93;;;5.72;;
50495;SDS011;38806;51.554;5.704;2023-12-20T10:28:20;24.00;;;4.50;;
50495;SDS011;38806;51.554;5.704;2023-12-20T10:30:23;15.38;;;5.85;;
50495;SDS011;38806;51.554;5.704;2023-12-20T10:32:25;13.18;;;4.88;;
50495;SDS011;38806;51.554;5.704;2023-12-20T10:34:26;12.65;;;4.45;;
50495;SDS011;38806;51.554;5.704;2023-12-20T10:36:27;14.73;;;4.03;;
50495;SDS011;38806;51.554;5.704;2023-12-20T10:38:27;12.13;;;4.88;;
50495;SDS011;38806;51.554;5.704;2023-12-20T10:40:29;12.15;;;4.85;;
50495;SDS011;38806;51.554;5.704;2023-12-20T10:42:29;12.35;;;4.45;;
50495;SDS011;38806;51.554;5.704;2023-12-20T10:44:30;20.05;;;7.38;;
50495;SDS011;38806;51.554;5.704;2023-12-20T10:46:30;9.57;;;3.90;;
50495;SDS011;38806;51.554;5.704;2023-12-20T10:48:32;12.85;;;5.80;;
50495;SDS011;38806;51.554;5.704;2023-12-20T10:50:32;16.30;;;5.15;;
50495;SDS011;38806;51.554;5.704;2023-12-20T10:52:33;16.30;;;4.20;;
50495;SDS011;38806;51.554;5.704;2023-12-20T10:54:34;18.73;;;7.75;;
50495;SDS011;38806;51.554;5.704;2023-12-20T10:56:34;15.70;;;4.68;;
50495;SDS011;38806;51.554;5.704;2023-12-20T10:58:35;18.98;;;3.97;;
50495;SDS011;38806;51.554;5.704;2023-12-20T11:00:39;10.77;;;3.58;;
50495;SDS011;38806;51.554;5.704;2023-12-20T11:02:40;20.23;;;4.68;;
50495;SDS011;38806;51.554;5.704;2023-12-20T11:04:44;12.48;;;4.22;;
50495;SDS011;38806;51.554;5.704;2023-12-20T11:06:54;11.75;;;4.30;;
50495;SDS011;38806;51.554;5.704;2023-12-20T11:11:23;13.25;;;4.43;;
50495;SDS011;38806;51.554;5.704;2023-12-20T11:13:31;15.50;;;5.30;;
50495;SDS011;38806;51.554;5.704;2023-12-20T11:15:32;21.17;;;5.53;;
50495;SDS011;38806;51.554;5.704;2023-12-20T11:17:32;14.82;;;5.43;;
50495;SDS011;38806;51.554;5.704;2023-12-20T11:19:35;17.02;;;4.90;;
50495;SDS011;38806;51.554;5.704;2023-12-20T11:21:35;14.35;;;5.13;;
50495;SDS011;38806;51.554;5.704;2023-12-20T11:23:35;16.42;;;5.68;;
50495;SDS011;38806;51.554;5.704;2023-12-20T11:25:48;15.95;;;4.80;;
50495;SDS011;38806;51.554;5.704;2023-12-20T11:28:10;14.30;;;4.63;;
50495;SDS011;38806;51.554;5.704;2023-12-20T11:30:11;16.10;;;4.78;;
50495;SDS011;38806;51.554;5.704;2023-12-20T11:34:32;13.05;;;4.30;;
50495;SDS011;38806;51.554;5.704;2023-12-20T11:36:33;11.75;;;4.68;;
50495;SDS011;38806;51.554;5.704;2023-12-20T11:38:36;22.77;;;5.93;;
50495;SDS011;38806;51.554;5.704;2023-12-20T11:40:37;24.05;;;5.78;;
50495;SDS011;38806;51.554;5.704;2023-12-20T11:42:38;13.75;;;5.50;;
50495;SDS011;38806;51.554;5.704;2023-12-20T11:44:38;14.75;;;4.45;;
50495;SDS011;38806;51.554;5.704;2023-12-20T11:46:38;28.52;;;7.50;;
50495;SDS011;38806;51.554;5.704;2023-12-20T11:48:39;16.27;;;5.03;;
50495;SDS011;38806;51.554;5.704;2023-12-20T11:50:40;15.38;;;5.88;;
50495;SDS011;38806;51.554;5.704;2023-12-20T11:52:40;27.88;;;6.75;;
50495;SDS011;38806;51.554;5.704;2023-12-20T11:54:40;16.02;;;6.50;;
50495;SDS011;38806;51.554;5.704;2023-12-20T11:56:40;12.95;;;5.20;;
50495;SDS011;38806;51.554;5.704;2023-12-20T11:58:40;20.40;;;6.03;;
50495;SDS011;38806;51.554;5.704;2023-12-20T12:00:41;20.38;;;8.95;;